createdAt,value
2016-05-10T00:00:13.593Z,68.99
2016-05-10T00:01:13.627Z,67.84
2016-05-10T00:02:13.660Z,67.97
2016-05-10T00:04:13.697Z,67.88
2016-05-10T00:05:13.716Z,68.32
2016-05-10T00:06:13.734Z,68.23
2016-05-10T00:08:13.786Z,68.7
2016-05-10T00:09:13.648Z,69.09
2016-05-10T00:10:13.682Z,69.27
2016-05-10T00:11:13.857Z,69.27
2016-05-10T00:12:13.876Z,69.85
2016-05-10T00:13:28.152Z,70.14
2016-05-10T00:14:13.995Z,70.2
2016-05-10T00:15:14.039Z,70.48
2016-05-10T00:16:14.115Z,70.67
2016-05-10T00:17:14.174Z,70.48
2016-05-10T00:18:14.216Z,70.29
2016-05-10T00:19:14.264Z,70.96
2016-05-10T00:20:14.141Z,71.34
2016-05-10T00:21:14.174Z,71.15
2016-05-10T00:24:14.429Z,71.25
2016-05-10T00:25:14.297Z,70.67
2016-05-10T00:26:14.476Z,71.15
2016-05-10T00:27:14.344Z,71.44
2016-05-10T00:28:14.537Z,71.34
2016-05-10T00:29:28.735Z,71.82
2016-05-10T00:30:14.422Z,72.01
2016-05-10T00:31:14.614Z,71.82
2016-05-10T00:32:14.650Z,71.63
2016-05-10T00:33:14.653Z,71.92
2016-05-10T00:34:14.672Z,72.3
2016-05-10T00:35:14.691Z,72.58
2016-05-10T00:36:14.726Z,72.87
2016-05-10T00:37:14.745Z,73.16
2016-05-10T00:38:14.764Z,72.78
2016-05-10T00:40:14.660Z,73.32
2016-05-10T00:41:14.835Z,73.69
2016-05-10T00:42:14.854Z,73.5
2016-05-10T00:43:14.872Z,73.79
2016-05-10T00:44:14.735Z,73.6
2016-05-10T00:45:29.100Z,73.41
2016-05-10T00:46:14.944Z,73.88
2016-05-10T00:47:14.961Z,73.6
2016-05-10T00:48:14.980Z,73.73
2016-05-10T00:49:15.014Z,73.41
2016-05-10T00:50:15.032Z,73.69
2016-05-10T00:51:15.066Z,74.17
2016-05-10T00:53:15.087Z,73.41
2016-05-10T00:54:14.949Z,73.79
2016-05-10T00:55:15.140Z,74.37
2016-05-10T00:57:15.176Z,74.37
2016-05-10T00:58:15.210Z,74.27
2016-05-10T00:59:15.228Z,74.27
2016-05-10T01:00:29.437Z,75.13
2016-05-10T01:01:15.281Z,74.55
2016-05-10T01:02:15.298Z,74.27
2016-05-10T01:03:15.317Z,74.46
2016-05-10T01:04:15.336Z,74.84
2016-05-10T01:05:15.198Z,74.17
2016-05-10T01:06:15.372Z,75.13
2016-05-10T01:07:15.406Z,75.6
2016-05-10T01:08:15.425Z,74.55
2016-05-10T01:09:15.442Z,75.51
2016-05-10T01:10:15.461Z,75.32
2016-05-10T01:11:15.495Z,74.74
2016-05-10T01:12:15.513Z,74.65
2016-05-10T01:13:15.531Z,75.03
2016-05-10T01:14:15.909Z,75.22
2016-05-10T01:15:15.569Z,75.6
2016-05-10T01:16:15.586Z,74.84
2016-05-10T01:17:15.621Z,76.08
2016-05-10T01:18:15.655Z,75.32
2016-05-10T01:19:15.657Z,75.32
2016-05-10T01:20:15.675Z,75.98
2016-05-10T01:21:15.710Z,75.7
2016-05-10T01:22:15.727Z,76.27
2016-05-10T01:23:15.746Z,76.56
2016-05-10T01:25:15.627Z,75.95
2016-05-10T01:26:15.816Z,76.14
2016-05-10T01:27:15.835Z,76.71
2016-05-10T01:28:15.853Z,77.47
2016-05-10T01:29:15.887Z,77.19
2016-05-10T01:30:15.749Z,76.62
2016-05-10T01:31:15.767Z,76.75
2016-05-10T01:32:30.132Z,76.33
2016-05-10T01:33:15.976Z,76.23
2016-05-10T01:34:15.995Z,77.09
2016-05-10T01:35:16.012Z,76.52
2016-05-10T01:36:16.031Z,76.81
2016-05-10T01:37:16.050Z,77
2016-05-10T01:38:15.911Z,77.09
2016-05-10T01:39:15.930Z,77.28
2016-05-10T01:40:16.120Z,77
2016-05-10T01:41:16.139Z,77.57
2016-05-10T01:42:16.156Z,77.76
2016-05-10T01:43:16.175Z,77
2016-05-10T01:44:16.208Z,77.86
2016-05-10T01:45:16.227Z,77
2016-05-10T01:46:16.245Z,77.76
2016-05-10T01:47:16.264Z,77.95
2016-05-10T01:48:30.472Z,78.05
2016-05-10T01:49:16.316Z,77.67
2016-05-10T01:50:16.177Z,77.76
2016-05-10T01:51:16.352Z,77.57
2016-05-10T01:52:16.371Z,78.14
2016-05-10T01:53:16.389Z,77.76
2016-05-10T01:54:16.408Z,78.05
2016-05-10T01:55:16.441Z,78.43
2016-05-10T01:56:16.460Z,78.52
2016-05-10T01:57:16.478Z,77.76
2016-05-10T01:58:16.528Z,77.76
2016-05-10T01:59:16.780Z,77.86
2016-05-10T02:00:16.393Z,78.52
2016-05-10T02:01:16.567Z,78.72
2016-05-10T02:02:16.585Z,78.72
2016-05-10T02:03:16.634Z,79.48
2016-05-10T02:04:30.812Z,79.06
2016-05-10T02:05:16.656Z,79.63
2016-05-10T02:06:16.674Z,80.11
2016-05-10T02:07:16.693Z,80.39
2016-05-10T02:08:16.554Z,80.68
2016-05-10T02:09:16.744Z,80.39
2016-05-10T02:11:16.781Z,80.11
2016-05-10T02:12:16.800Z,80.58
2016-05-10T02:13:16.834Z,80.11
2016-05-10T02:14:16.852Z,80.05
2016-05-10T02:15:16.870Z,79.96
2016-05-10T02:16:16.732Z,80.15
2016-05-10T02:17:16.907Z,80.58
2016-05-10T02:18:16.925Z,80.68
2016-05-10T02:19:16.803Z,81.06
2016-05-10T02:20:31.152Z,81.06
2016-05-10T02:21:16.996Z,81.06
2016-05-10T02:22:17.014Z,81.15
2016-05-10T02:23:17.032Z,81.35
2016-05-10T02:24:17.066Z,80.96
2016-05-10T02:25:17.085Z,80.72
2016-05-10T02:26:17.103Z,81.35
2016-05-10T02:27:17.121Z,81.06
2016-05-10T02:29:17.018Z,81.25
2016-05-10T02:32:17.228Z,81.54
2016-05-10T02:33:17.262Z,81.06
2016-05-10T02:34:17.281Z,81.06
2016-05-10T02:35:31.474Z,81.2
2016-05-10T02:36:17.318Z,81.01
2016-05-10T02:37:17.336Z,80.72
2016-05-10T02:38:17.353Z,80.15
2016-05-10T02:39:17.387Z,80.15
2016-05-10T02:40:17.406Z,80.43
2016-05-10T02:41:17.425Z,81.1
2016-05-10T02:42:17.459Z,80.72
2016-05-10T02:43:17.461Z,81.2
2016-05-10T02:46:17.532Z,81.67
2016-05-10T02:47:17.550Z,81.92
2016-05-10T02:48:17.411Z,81.92
2016-05-10T02:49:17.447Z,81.86
2016-05-10T02:50:17.621Z,82.01
2016-05-10T02:51:17.623Z,82.68
2016-05-10T02:52:17.658Z,82.68
2016-05-10T02:53:17.675Z,83.06
2016-05-10T02:54:17.694Z,83.06
2016-05-10T02:55:17.713Z,83.16
2016-05-10T02:56:17.746Z,83.64
2016-05-10T02:57:17.765Z,83.54
2016-05-10T02:58:17.782Z,83.54
2016-05-10T03:00:17.819Z,84.2
2016-05-10T03:01:17.853Z,83.83
2016-05-10T03:02:17.872Z,84.2
2016-05-10T03:03:17.890Z,84.01
2016-05-10T03:04:17.909Z,83.73
2016-05-10T03:05:17.926Z,84.11
2016-05-10T03:06:17.960Z,83.83
2016-05-10T03:07:32.153Z,83.92
2016-05-10T03:08:17.997Z,84.01
2016-05-10T03:09:18.015Z,84.78
2016-05-10T03:10:18.034Z,84.49
2016-05-10T03:11:18.067Z,84.69
2016-05-10T03:12:18.086Z,84.88
2016-05-10T03:13:18.104Z,84.78
2016-05-10T03:14:18.436Z,84.88
2016-05-10T03:15:18.141Z,84.97
2016-05-10T03:16:18.159Z,84.78
2016-05-10T03:17:18.193Z,85.25
2016-05-10T03:18:18.243Z,85.06
2016-05-10T03:19:18.230Z,85.45
2016-05-10T03:20:18.247Z,85.54
2016-05-10T03:21:18.267Z,86.02
2016-05-10T03:22:18.285Z,86.02
2016-05-10T03:23:32.493Z,85.83
2016-05-10T03:24:18.337Z,85.83
2016-05-10T03:25:18.355Z,85.64
2016-05-10T03:26:18.374Z,86.26
2016-05-10T03:27:18.392Z,86.3
2016-05-10T03:28:18.410Z,86.3
2016-05-10T03:29:18.444Z,85.93
2016-05-10T03:30:18.479Z,85.45
2016-05-10T03:32:18.499Z,85.93
2016-05-10T03:34:18.551Z,86.69
2016-05-10T03:35:18.570Z,86.3
2016-05-10T03:36:18.588Z,86.49
2016-05-10T03:37:18.606Z,86.11
2016-05-10T03:38:18.626Z,86.02
2016-05-10T03:39:32.833Z,85.16
2016-05-10T03:40:18.676Z,85.93
2016-05-10T03:41:18.695Z,85.45
2016-05-10T03:42:18.714Z,85.83
2016-05-10T03:43:18.576Z,85.35
2016-05-10T03:44:18.750Z,85.25
2016-05-10T03:45:18.800Z,85.83
2016-05-10T03:46:18.803Z,86.21
2016-05-10T03:47:18.820Z,86.49
2016-05-10T03:49:18.873Z,85.54
2016-05-10T03:50:18.720Z,85.35
2016-05-10T03:51:18.910Z,85.93
2016-05-10T03:52:18.927Z,85.35
2016-05-10T03:53:18.946Z,85.16
2016-05-10T03:54:18.964Z,85.73
2016-05-10T03:55:33.174Z,85.73
2016-05-10T03:56:19.017Z,85.54
2016-05-10T03:57:19.036Z,85.25
2016-05-10T03:58:19.054Z,85.54
2016-05-10T03:59:18.931Z,84.78
2016-05-10T04:00:19.105Z,85.39
2016-05-10T04:01:19.108Z,85.21
2016-05-10T04:03:19.004Z,85.16
2016-05-10T04:04:19.179Z,84.53
2016-05-10T04:06:19.231Z,84.25
2016-05-10T04:07:19.249Z,84.25
2016-05-10T04:08:19.268Z,84.25
2016-05-10T04:09:19.287Z,84.25
2016-05-10T04:10:33.495Z,84.25
2016-05-10T04:11:19.339Z,83.48
2016-05-10T04:12:19.201Z,84.34
2016-05-10T04:13:19.375Z,84.16
2016-05-10T04:14:19.550Z,84.44
2016-05-10T04:15:19.428Z,84.34
2016-05-10T04:16:19.461Z,83.67
2016-05-10T04:18:19.483Z,84.34
2016-05-10T04:19:19.500Z,83.96
2016-05-10T04:21:19.552Z,83.87
2016-05-10T04:22:19.571Z,83.77
2016-05-10T04:23:19.589Z,83.39
2016-05-10T04:24:19.608Z,83.58
2016-05-10T04:25:19.642Z,83.67
2016-05-10T04:26:19.505Z,83.67
2016-05-10T04:27:19.678Z,83.48
2016-05-10T04:28:19.696Z,83.62
2016-05-10T04:29:19.730Z,82.91
2016-05-10T04:30:19.733Z,82.67
2016-05-10T04:31:19.768Z,82.57
2016-05-10T04:32:19.786Z,82.67
2016-05-10T04:33:19.648Z,82.09
2016-05-10T04:34:19.837Z,82.57
2016-05-10T04:35:19.857Z,82.48
2016-05-10T04:36:19.874Z,82.57
2016-05-10T04:37:19.893Z,82.38
2016-05-10T04:38:19.912Z,81.81
2016-05-10T04:39:19.929Z,81.81
2016-05-10T04:40:19.807Z,81.43
2016-05-10T04:41:19.981Z,80.99
2016-05-10T04:42:34.190Z,79.94
2016-05-10T04:43:20.018Z,79.17
2016-05-10T04:44:20.053Z,78.6
2016-05-10T04:45:20.071Z,78.51
2016-05-10T04:46:20.104Z,78.51
2016-05-10T04:47:20.106Z,78.79
2016-05-10T04:48:20.141Z,78.22
2016-05-10T04:49:20.159Z,78.16
2016-05-10T04:50:20.022Z,75.05
2016-05-10T04:51:20.197Z,69.67
2016-05-10T04:54:20.266Z,58.84
2016-05-10T04:55:20.285Z,56.4
2016-05-10T04:56:20.319Z,52.51
2016-05-10T04:57:20.337Z,50.15
2016-05-10T04:58:34.546Z,48.74
2016-05-10T04:59:20.389Z,46.56
2016-05-10T05:00:20.408Z,43.43
2016-05-10T05:01:20.442Z,42.31
2016-05-10T05:02:20.460Z,42.29
2016-05-10T05:03:20.494Z,43.62
2016-05-10T05:04:20.356Z,43.81
2016-05-10T05:05:20.546Z,44.18
2016-05-10T05:06:20.565Z,43.6
2016-05-10T05:07:20.598Z,42.27
2016-05-10T05:08:20.617Z,39.8
2016-05-10T05:09:20.479Z,36.96
2016-05-10T05:10:20.668Z,37.94
2016-05-10T05:11:20.704Z,38.97
2016-05-10T05:12:20.721Z,39.8
2016-05-10T05:13:20.755Z,38.35
2016-05-10T05:14:34.964Z,39.36
2016-05-10T05:15:20.807Z,40.36
2016-05-10T05:16:20.825Z,40.94
2016-05-10T05:17:20.860Z,42.54
2016-05-10T05:18:20.894Z,39.95
2016-05-10T05:19:20.912Z,38.25
2016-05-10T05:20:20.789Z,36.55
2016-05-10T05:21:20.964Z,36
2016-05-10T05:23:20.860Z,35.52
2016-05-10T05:24:21.050Z,34.09
2016-05-10T05:26:21.119Z,32.78
2016-05-10T05:27:21.136Z,33.42
2016-05-10T05:28:21.171Z,32.56
2016-05-10T05:29:21.329Z,31.91
2016-05-10T05:30:35.413Z,30.84
2016-05-10T05:31:21.257Z,30.94
2016-05-10T05:32:21.290Z,30.68
2016-05-10T05:33:21.310Z,30.18
2016-05-10T05:34:21.344Z,29.8
2016-05-10T05:35:21.377Z,28.17
2016-05-10T05:36:21.395Z,30.04
2016-05-10T05:37:21.429Z,30.94
2016-05-10T05:38:21.463Z,31.13
2016-05-10T05:41:21.549Z,25.9
2016-05-10T05:42:21.584Z,25.13
2016-05-10T05:43:21.601Z,26.4
2016-05-10T05:44:22.151Z,28.78
2016-05-10T05:45:35.859Z,30.65
2016-05-10T05:46:21.703Z,29.11
2016-05-10T05:47:21.737Z,29.33
2016-05-10T05:48:21.615Z,29.21
2016-05-10T05:49:21.805Z,28.74
2016-05-10T05:50:21.668Z,28.65
2016-05-10T05:51:21.858Z,28.17
2016-05-10T05:52:21.891Z,29.54
2016-05-10T05:54:21.944Z,29.5
2016-05-10T05:55:21.977Z,28.07
2016-05-10T05:56:22.011Z,26.44
2016-05-10T05:57:22.045Z,25.71
2016-05-10T05:58:21.922Z,25.81
2016-05-10T05:59:22.160Z,27.06
2016-05-10T06:00:21.991Z,28.55
2016-05-10T06:01:22.010Z,27.58
2016-05-10T06:02:22.199Z,25.97
2016-05-10T06:03:22.233Z,26.36
2016-05-10T06:04:22.268Z,27.03
2016-05-10T06:05:22.302Z,25.3
2016-05-10T06:06:22.335Z,24.65
2016-05-10T06:07:22.354Z,23.3
2016-05-10T06:08:22.404Z,22.84
2016-05-10T06:09:22.422Z,25.04
2016-05-10T06:10:22.454Z,26.07
2016-05-10T06:12:22.523Z,27.03
2016-05-10T06:13:22.401Z,26.06
2016-05-10T06:14:22.435Z,27.59
2016-05-10T06:15:22.641Z,27.01
2016-05-10T06:16:22.643Z,26.75
2016-05-10T06:17:36.867Z,27.12
2016-05-10T06:18:22.726Z,25.2
2016-05-10T06:19:22.745Z,23.68
2016-05-10T06:20:22.795Z,20.81
2016-05-10T06:21:22.814Z,20.15
2016-05-10T06:22:22.848Z,19.57
2016-05-10T06:23:22.881Z,19.37
2016-05-10T06:24:22.915Z,19.67
2016-05-10T06:25:22.949Z,18.7
2016-05-10T06:27:23.032Z,18.62
2016-05-10T06:28:23.051Z,19.2
2016-05-10T06:29:22.928Z,18.51
2016-05-10T06:30:23.119Z,19.3
2016-05-10T06:31:22.996Z,19.96
2016-05-10T06:32:23.187Z,21.11
2016-05-10T06:33:37.394Z,22.31
2016-05-10T06:34:23.254Z,22.99
2016-05-10T06:35:23.116Z,23.88
2016-05-10T06:36:23.322Z,23.67
2016-05-10T06:37:23.356Z,23.57
2016-05-10T06:39:23.424Z,21
2016-05-10T06:40:23.457Z,19.37
2016-05-10T06:41:23.492Z,20.25
2016-05-10T06:42:23.526Z,20.33
2016-05-10T06:43:23.560Z,20.72
2016-05-10T06:44:24.547Z,20.69
2016-05-10T06:45:23.628Z,19.56
2016-05-10T06:46:23.662Z,19.08
2016-05-10T06:47:23.696Z,18.23
2016-05-10T06:48:23.573Z,19.87
2016-05-10T06:49:37.954Z,21.37
2016-05-10T06:50:23.798Z,20.78
2016-05-10T06:52:23.865Z,20.33
2016-05-10T06:53:23.915Z,20.61
2016-05-10T06:54:23.934Z,20.12
2016-05-10T06:55:23.967Z,20.59
2016-05-10T06:56:24.000Z,20.58
2016-05-10T06:57:24.035Z,19.83
2016-05-10T06:59:24.697Z,17.92
2016-05-10T07:01:24.014Z,21.2
2016-05-10T07:02:24.204Z,21.73
2016-05-10T07:03:24.239Z,21.84
2016-05-10T07:04:24.272Z,21.35
2016-05-10T07:05:38.496Z,21.46
2016-05-10T07:06:24.355Z,21.17
2016-05-10T07:07:24.390Z,20.78
2016-05-10T07:08:24.424Z,20.98
2016-05-10T07:09:24.457Z,20.7
2016-05-10T07:10:24.492Z,20.2
2016-05-10T07:11:24.526Z,20.61
2016-05-10T07:12:24.559Z,20.19
2016-05-10T07:13:24.593Z,20.04
2016-05-10T07:14:24.627Z,18.96
2016-05-10T07:15:24.662Z,18.38
2016-05-10T07:16:24.696Z,17.42
2016-05-10T07:17:24.745Z,17.05
2016-05-10T07:18:24.779Z,16.56
2016-05-10T07:19:24.797Z,16.96
2016-05-10T07:20:39.021Z,18.98
2016-05-10T07:21:24.725Z,19.06
2016-05-10T07:22:24.914Z,20.61
2016-05-10T07:23:25.495Z,20.96
2016-05-10T07:24:24.983Z,21.25
2016-05-10T07:25:25.017Z,22.13
2016-05-10T07:26:25.051Z,22.99
2016-05-10T07:27:25.084Z,23.27
2016-05-10T07:28:25.119Z,23.54
2016-05-10T07:29:25.402Z,22.31
2016-05-10T07:30:25.202Z,21.99
2016-05-10T07:31:25.219Z,21.22
2016-05-10T07:32:25.254Z,20.76
2016-05-10T07:33:25.303Z,19.8
2016-05-10T07:34:25.338Z,19.05
2016-05-10T07:35:25.372Z,18.37
2016-05-10T07:36:25.405Z,18.56
2016-05-10T07:37:25.439Z,18.77
2016-05-10T07:38:25.473Z,17.58
2016-05-10T07:39:25.351Z,18.47
2016-05-10T07:40:25.541Z,18.56
2016-05-10T07:41:25.590Z,18.46
2016-05-10T07:42:25.624Z,19.04
2016-05-10T07:43:25.643Z,17.78
2016-05-10T07:44:25.693Z,19.24
2016-05-10T07:45:25.727Z,18.54
2016-05-10T07:46:25.588Z,18.27
2016-05-10T07:47:25.826Z,18.54
2016-05-10T07:48:25.859Z,18.75
2016-05-10T07:49:25.862Z,18.65
2016-05-10T07:50:25.974Z,19.41
2016-05-10T07:51:25.931Z,20.09
2016-05-10T07:52:40.154Z,20.07
2016-05-10T07:53:25.998Z,20.86
2016-05-10T07:54:26.032Z,21.03
2016-05-10T07:55:26.067Z,20.86
2016-05-10T07:56:26.115Z,20.07
2016-05-10T07:57:26.134Z,19.99
2016-05-10T07:58:26.183Z,18.93
2016-05-10T07:59:26.264Z,18.76
2016-05-10T08:01:26.285Z,17.41
2016-05-10T08:03:26.353Z,18.48
2016-05-10T08:04:26.402Z,18.54
2016-05-10T08:05:26.421Z,18.74
2016-05-10T08:06:26.471Z,20.78
2016-05-10T08:07:26.505Z,20.15
2016-05-10T08:08:40.713Z,19.88
2016-05-10T08:09:26.572Z,19.79
2016-05-10T08:10:26.607Z,18.35
2016-05-10T08:11:26.655Z,17.4
2016-05-10T08:12:26.674Z,17.99
2016-05-10T08:13:26.708Z,19.03
2016-05-10T08:14:26.757Z,18.74
2016-05-10T08:15:26.620Z,18.16
2016-05-10T08:16:26.810Z,17.96
2016-05-10T08:18:26.893Z,17.58
2016-05-10T08:19:26.927Z,19.14
2016-05-10T08:20:26.946Z,20.09
2016-05-10T08:21:26.995Z,20.75
2016-05-10T08:22:26.873Z,19.87
2016-05-10T08:23:27.063Z,18.8
2016-05-10T08:24:41.287Z,17.76
2016-05-10T08:25:27.131Z,18.25
2016-05-10T08:26:27.164Z,17.69
2016-05-10T08:27:27.198Z,16.61
2016-05-10T08:28:27.233Z,16.25
2016-05-10T08:29:27.579Z,16.64
2016-05-10T08:30:27.831Z,15.37
2016-05-10T08:32:27.369Z,16.91
2016-05-10T08:34:27.484Z,18.75
2016-05-10T08:35:27.470Z,17.76
2016-05-10T08:36:27.504Z,18.37
2016-05-10T08:37:27.538Z,18.05
2016-05-10T08:38:27.588Z,18.26
2016-05-10T08:39:27.621Z,17.38
2016-05-10T08:40:41.830Z,15.96
2016-05-10T08:41:27.690Z,16.16
2016-05-10T08:42:27.723Z,17.02
2016-05-10T08:43:27.757Z,16.93
2016-05-10T08:44:27.791Z,17
2016-05-10T08:45:27.826Z,15.55
2016-05-10T08:46:27.859Z,16.64
2016-05-10T08:47:27.893Z,17.71
2016-05-10T08:48:27.927Z,18.76
2016-05-10T08:49:27.962Z,18.91
2016-05-10T08:50:27.995Z,17.87
2016-05-10T08:51:28.029Z,17.51
2016-05-10T08:52:28.063Z,18.25
2016-05-10T08:53:28.113Z,17.3
2016-05-10T08:54:27.975Z,17.49
2016-05-10T08:55:42.356Z,17.88
2016-05-10T08:56:28.199Z,18.73
2016-05-10T08:57:28.264Z,18.44
2016-05-10T08:58:28.282Z,16.42
2016-05-10T08:59:28.316Z,14.7
2016-05-10T09:00:28.194Z,15.09
2016-05-10T09:01:28.384Z,14.98
2016-05-10T09:03:28.467Z,16.16
2016-05-10T09:04:28.485Z,16.35
2016-05-10T09:05:28.519Z,17.86
2016-05-10T09:06:28.554Z,16.31
2016-05-10T09:07:28.603Z,14.49
2016-05-10T09:08:28.622Z,14.13
2016-05-10T09:09:28.656Z,15.11
2016-05-10T09:10:28.689Z,16.56
2016-05-10T09:11:28.724Z,16.05
2016-05-10T09:12:40.197Z,15.85
2016-05-10T09:13:36.338Z,16.25
2016-05-10T09:14:29.279Z,15.77
2016-05-10T09:15:28.860Z,15.28
2016-05-10T09:16:28.752Z,14.31
2016-05-10T09:17:28.943Z,14.81
2016-05-10T09:18:28.977Z,15
2016-05-10T09:19:29.047Z,15.67
2016-05-10T09:20:29.124Z,15.47
2016-05-10T09:21:29.199Z,16.08
2016-05-10T09:22:29.274Z,17.12
2016-05-10T09:23:29.349Z,17
2016-05-10T09:24:29.416Z,16.9
2016-05-10T09:25:29.450Z,16.32
2016-05-10T09:26:29.499Z,15.66
2016-05-10T09:27:43.753Z,14.31
2016-05-10T09:28:29.612Z,13.65
2016-05-10T09:29:29.652Z,12.38
2016-05-10T09:30:29.677Z,11.44
2016-05-10T09:31:29.731Z,9.88
2016-05-10T09:32:29.756Z,11.17
2016-05-10T09:33:29.809Z,11.54
2016-05-10T09:34:29.847Z,11.62
2016-05-10T09:35:29.726Z,11.73
2016-05-10T09:36:29.917Z,10.75
2016-05-10T09:37:29.797Z,10.75
2016-05-10T09:38:29.990Z,11.44
2016-05-10T09:40:30.059Z,11.81
2016-05-10T09:41:30.109Z,12.78
2016-05-10T09:42:29.988Z,12.49
2016-05-10T09:43:44.353Z,15.11
2016-05-10T09:44:30.213Z,15.47
2016-05-10T09:45:30.092Z,15.28
2016-05-10T09:46:30.281Z,13.43
2016-05-10T09:47:30.317Z,13.85
2016-05-10T09:48:30.195Z,13.82
2016-05-10T09:49:30.384Z,15.09
2016-05-10T09:50:30.418Z,15.44
2016-05-10T09:51:30.452Z,14.68
2016-05-10T09:52:30.486Z,14.51
2016-05-10T09:53:30.379Z,14.03
2016-05-10T09:54:30.570Z,13.06
2016-05-10T09:55:30.603Z,13.07
2016-05-10T09:56:30.481Z,13.55
2016-05-10T09:57:30.672Z,13.06
2016-05-10T09:58:30.705Z,12.47
2016-05-10T09:59:44.930Z,13.54
2016-05-10T10:00:30.617Z,12.85
2016-05-10T10:01:30.823Z,12.85
2016-05-10T10:02:30.857Z,10.92
2016-05-10T10:03:30.891Z,11.81
2016-05-10T10:04:30.925Z,12.45
2016-05-10T10:05:30.958Z,12.37
2016-05-10T10:06:30.852Z,11.79
2016-05-10T10:07:31.027Z,10.92
2016-05-10T10:08:30.904Z,11.13
2016-05-10T10:09:31.095Z,12.8
2016-05-10T10:10:31.129Z,12.57
2016-05-10T10:11:31.178Z,13.75
2016-05-10T10:12:31.213Z,13.43
2016-05-10T10:13:31.246Z,12.87
2016-05-10T10:14:31.296Z,13.76
2016-05-10T10:15:45.504Z,14.31
2016-05-10T10:16:31.348Z,14
2016-05-10T10:17:31.382Z,13.43
2016-05-10T10:18:31.415Z,12.46
2016-05-10T10:19:31.449Z,11.8
2016-05-10T10:20:31.498Z,12.68
2016-05-10T10:21:31.534Z,12.36
2016-05-10T10:23:31.601Z,11.89
2016-05-10T10:24:31.634Z,10.73
2016-05-10T10:26:31.703Z,9.48
2016-05-10T10:27:31.753Z,10.75
2016-05-10T10:28:31.615Z,10.16
2016-05-10T10:29:32.164Z,9.47
2016-05-10T10:30:46.044Z,10.75
2016-05-10T10:31:31.888Z,11.31
2016-05-10T10:32:31.922Z,13.73
2016-05-10T10:33:31.956Z,13.71
2016-05-10T10:34:31.833Z,13.23
2016-05-10T10:35:32.039Z,11.98
2016-05-10T10:36:32.089Z,10.52
2016-05-10T10:37:32.122Z,10.14
2016-05-10T10:38:32.157Z,10.93
2016-05-10T10:40:32.209Z,12.95
2016-05-10T10:41:32.244Z,12.93
2016-05-10T10:42:32.293Z,14.19
2016-05-10T10:43:32.327Z,12.82
2016-05-10T10:44:32.392Z,11.86
2016-05-10T10:45:32.394Z,13.34
2016-05-10T10:46:32.429Z,13.51
2016-05-10T10:47:32.463Z,13.8
2016-05-10T10:48:32.496Z,13.02
2016-05-10T10:49:32.529Z,12.07
2016-05-10T10:50:32.580Z,12.75
2016-05-10T10:51:32.615Z,11.78
2016-05-10T10:52:32.648Z,11.88
2016-05-10T10:54:32.559Z,12.36
2016-05-10T10:55:32.750Z,11.4
2016-05-10T10:56:32.798Z,9.55
2016-05-10T10:57:32.833Z,10.55
2016-05-10T10:58:32.867Z,12
2016-05-10T10:59:32.901Z,12.46
2016-05-10T11:00:32.935Z,13.04
2016-05-10T11:01:32.969Z,13.71
2016-05-10T11:02:47.193Z,14.28
2016-05-10T11:03:33.037Z,14.95
2016-05-10T11:04:33.103Z,15.63
2016-05-10T11:05:33.120Z,16.49
2016-05-10T11:06:33.155Z,17.07
2016-05-10T11:07:33.188Z,17.35
2016-05-10T11:08:33.222Z,18.52
2016-05-10T11:09:33.255Z,19
2016-05-10T11:11:33.355Z,20.21
2016-05-10T11:12:33.374Z,20.88
2016-05-10T11:13:33.407Z,21.94
2016-05-10T11:14:33.629Z,22.33
2016-05-10T11:15:33.319Z,22.42
2016-05-10T11:16:33.524Z,21.93
2016-05-10T11:17:33.387Z,22.22
2016-05-10T11:18:47.783Z,22.68
2016-05-10T11:19:33.627Z,23.07
2016-05-10T11:20:33.660Z,23.36
2016-05-10T11:21:33.695Z,23.16
2016-05-10T11:22:33.729Z,23.85
2016-05-10T11:24:33.812Z,24.52
2016-05-10T11:26:33.880Z,24.15
2016-05-10T11:27:33.914Z,23.47
2016-05-10T11:28:33.948Z,23.75
2016-05-10T11:29:33.982Z,25.19
2016-05-10T11:30:34.015Z,24.9
2016-05-10T11:31:34.065Z,25.01
2016-05-10T11:32:33.942Z,25.49
2016-05-10T11:33:34.133Z,25.59
2016-05-10T11:34:48.357Z,25.4
2016-05-10T11:35:34.200Z,25.87
2016-05-10T11:36:34.235Z,25.4
2016-05-10T11:37:34.269Z,25.2
2016-05-10T11:38:34.302Z,25.58
2016-05-10T11:39:34.352Z,25.68
2016-05-10T11:40:34.386Z,26.16
2016-05-10T11:42:34.455Z,26.43
2016-05-10T11:43:34.488Z,26.05
2016-05-10T11:44:35.584Z,26.34
2016-05-10T11:45:34.556Z,27.6
2016-05-10T11:46:34.591Z,26.63
2016-05-10T11:47:34.624Z,26.15
2016-05-10T11:48:34.658Z,25.87
2016-05-10T11:49:34.691Z,25.38
2016-05-10T11:50:48.916Z,24.8
2016-05-10T11:51:34.760Z,24.91
2016-05-10T11:52:34.809Z,25.2
2016-05-10T11:53:34.827Z,25.1
2016-05-10T11:54:34.862Z,25.21
2016-05-10T11:55:34.895Z,24.73
2016-05-10T11:56:34.929Z,25.88
2016-05-10T11:57:34.963Z,25.88
2016-05-10T11:58:34.997Z,25.98
2016-05-10T11:59:35.031Z,25.59
2016-05-10T12:00:35.065Z,25.29
2016-05-10T12:01:35.098Z,25.1
2016-05-10T12:03:35.166Z,26.16
2016-05-10T12:04:35.200Z,26.07
2016-05-10T12:05:49.425Z,27.24
2016-05-10T12:06:35.269Z,26.17
2016-05-10T12:07:35.303Z,25.12
2016-05-10T12:08:35.352Z,24.73
2016-05-10T12:09:35.214Z,24.72
2016-05-10T12:10:35.405Z,24.91
2016-05-10T12:11:35.283Z,25.01
2016-05-10T12:12:35.472Z,25.4
2016-05-10T12:13:35.491Z,26.07
2016-05-10T12:14:35.541Z,25.7
2016-05-10T12:16:35.593Z,25.49
2016-05-10T12:17:35.627Z,25.67
2016-05-10T12:18:35.660Z,25.96
2016-05-10T12:19:35.694Z,26.35
2016-05-10T12:20:35.713Z,26.64
2016-05-10T12:21:35.746Z,26.26
2016-05-10T12:22:35.812Z,26.82
2016-05-10T12:23:35.815Z,27.01
2016-05-10T12:24:35.692Z,26.73
2016-05-10T12:25:35.868Z,26.35
2016-05-10T12:26:35.901Z,26.45
2016-05-10T12:27:35.934Z,26.26
2016-05-10T12:28:35.954Z,26.45
2016-05-10T12:29:36.003Z,25.96
2016-05-10T12:30:36.021Z,26.25
2016-05-10T12:31:36.055Z,26.25
2016-05-10T12:32:36.072Z,26.25
2016-05-10T12:33:36.107Z,26.72
2016-05-10T12:34:36.142Z,26.43
2016-05-10T12:35:36.159Z,26.52
2016-05-10T12:36:36.037Z,26.25
2016-05-10T12:37:50.402Z,25.37
2016-05-10T12:38:36.261Z,25.48
2016-05-10T12:39:36.280Z,25.19
2016-05-10T12:40:36.313Z,24.82
2016-05-10T12:41:36.331Z,25.1
2016-05-10T12:42:36.366Z,25.76
2016-05-10T12:44:36.261Z,25.56
2016-05-10T12:45:36.296Z,24.98
2016-05-10T12:46:36.907Z,25.85
2016-05-10T12:47:36.505Z,24.88
2016-05-10T12:48:36.538Z,25.18
2016-05-10T12:49:36.572Z,24.69
2016-05-10T12:50:36.590Z,24.98
2016-05-10T12:51:36.624Z,24.69
2016-05-10T12:52:36.502Z,24.79
2016-05-10T12:53:50.866Z,25.18
2016-05-10T12:54:36.710Z,24.79
2016-05-10T12:55:36.728Z,24.98
2016-05-10T12:56:36.763Z,25.08
2016-05-10T12:57:36.796Z,24.6
2016-05-10T12:58:36.815Z,24.02
2016-05-10T12:59:36.723Z,23.63
2016-05-10T13:00:36.726Z,23.83
2016-05-10T13:01:36.745Z,24.71
2016-05-10T13:03:36.798Z,24.79
2016-05-10T13:04:36.831Z,24.88
2016-05-10T13:05:36.865Z,24.79
2016-05-10T13:06:37.040Z,25.08
2016-05-10T13:07:37.073Z,24.12
2016-05-10T13:08:37.108Z,24.6
2016-05-10T13:09:51.300Z,24.02
2016-05-10T13:10:37.159Z,23.92
2016-05-10T13:11:37.178Z,24.98
2016-05-10T13:12:37.211Z,25.65
2016-05-10T13:13:37.230Z,25.74
2016-05-10T13:14:37.545Z,26.23
2016-05-10T13:15:37.297Z,25.66
2016-05-10T13:16:37.316Z,25.08
2016-05-10T13:17:37.350Z,24.88
2016-05-10T13:18:37.369Z,24.79
2016-05-10T13:19:37.402Z,25.76
2016-05-10T13:20:37.436Z,25.37
2016-05-10T13:21:37.471Z,24.8
2016-05-10T13:22:37.333Z,24.98
2016-05-10T13:23:37.773Z,25.66
2016-05-10T13:24:37.540Z,25.38
2016-05-10T13:25:51.749Z,24.41
2016-05-10T13:26:37.593Z,23.93
2016-05-10T13:27:37.627Z,24.22
2016-05-10T13:28:37.661Z,23.82
2016-05-10T13:30:37.713Z,24.02
2016-05-10T13:31:37.732Z,24.4
2016-05-10T13:32:37.765Z,24.11
2016-05-10T13:34:37.818Z,25.18
2016-05-10T13:35:37.898Z,24.21
2016-05-10T13:36:37.870Z,24.21
2016-05-10T13:37:37.904Z,24.4
2016-05-10T13:38:37.923Z,24.5
2016-05-10T13:39:37.956Z,23.82
2016-05-10T13:40:52.164Z,24.6
2016-05-10T13:41:38.008Z,24.4
2016-05-10T13:42:37.870Z,24.5
2016-05-10T13:44:02.219Z,24.88
2016-05-10T13:44:38.094Z,24.11
2016-05-10T13:45:38.114Z,24.3
2016-05-10T13:46:38.147Z,24.02
2016-05-10T13:47:38.181Z,24.41
2016-05-10T13:48:38.043Z,24.22
2016-05-10T13:49:38.233Z,24.11
2016-05-10T13:50:38.252Z,24.11
2016-05-10T13:52:38.304Z,23.72
2016-05-10T13:53:38.354Z,23.33